This is the latest recevied weather packets stored in our database for station/object KR4ELZ. If no packets are shown the sender has not sent any weather packets the latest 10 day(s).
| Time | Temp. | Humidity | Pressure | Rain* | Wind** | Luminosity | Snow |
|---|---|---|---|---|---|---|---|
| 1777912666 | 25° C | 49% | 1013.8 hPa | 0 mm | - | 610 W/m² | - |
| 1777912362 | 25.56° C | 49% | 1013.8 hPa | 0 mm | - | 391 W/m² | - |
| 1777912059 | 24.44° C | 50% | 1013.8 hPa | 0 mm | - | 601 W/m² | - |
| 1777911755 | 25° C | 48% | 1014.1 hPa | 0 mm | - | 565 W/m² | - |
| 1777911451 | 24.44° C | 52% | 1014 hPa | 0 mm | - | 624 W/m² | - |
| 1777911148 | 25° C | 50% | 1014.1 hPa | 0 mm | - | 430 W/m² | - |
| 1777910846 | 25° C | 52% | 1014.4 hPa | 0 mm | - | 589 W/m² | - |
| 1777910542 | 24.44° C | 52% | 1014.5 hPa | 0 mm | - | 592 W/m² | - |
| 1777910240 | 24.44° C | 52% | 1014.5 hPa | 0 mm | - | 581 W/m² | - |
| 1777909936 | 24.44° C | 52% | 1014.3 hPa | 0 mm | - | 596 W/m² | - |
| 1777909633 | 23.89° C | 52% | 1014.5 hPa | 0 mm | - | 589 W/m² | - |
| 1777909331 | 23.33° C | 53% | 1014.4 hPa | 0 mm | - | 580 W/m² | - |
| 1777909029 | 23.89° C | 54% | 1014.7 hPa | 0 mm | - | 558 W/m² | - |
| 1777908726 | 23.89° C | 53% | 1014.6 hPa | 0 mm | - | 562 W/m² | - |
| 1777908423 | 23.33° C | 54% | 1014.5 hPa | 0 mm | - | 554 W/m² | - |
| 1777908119 | 23.89° C | 53% | 1014.4 hPa | 0 mm | - | 483 W/m² | - |
| 1777907815 | 23.33° C | 53% | 1014.6 hPa | 0 mm | - | 531 W/m² | - |
| 1777907510 | 22.78° C | 55% | 1014.6 hPa | 0 mm | - | 528 W/m² | - |
| 1777907207 | 23.33° C | 56% | 1014.5 hPa | 0 mm | - | 488 W/m² | - |
| 1777906904 | 22.78° C | 55% | 1014.6 hPa | 0 mm | - | 503 W/m² | - |
| 1777906602 | 22.78° C | 55% | 1014.6 hPa | 0 mm | - | 484 W/m² | - |
| 1777906297 | 22.22° C | 60% | 1014.6 hPa | 0 mm | - | 484 W/m² | - |
| 1777905994 | 21.67° C | 60% | 1014.6 hPa | 0 mm | - | 461 W/m² | - |
| 1777905691 | 21.67° C | 60% | 1014.6 hPa | 0 mm | - | 452 W/m² | - |
| 1777905387 | 21.11° C | 62% | 1014.6 hPa | 0 mm | - | 395 W/m² | - |
* Rain latest hour (hover to see other rain measurements)
** Current wind speed in m/s (hover to see current wind gust speed)